Time;durP1;ratioP1;P1;durP2;ratioP2;P2;SDS_P1;SDS_P2;PMS_P1;PMS_P2;Temp;Humidity;BMP_temperature;BMP_pressure;BME280_temperature;BME280_humidity;BME280_pressure;Samples;Min_cycle;Max_cycle;Signal;HPM_P1;HPM_P2
2021/10/29 00:01:15;;;;;;;9.33;5.43;;;13.50;17.00;;;;;;5115957;28;20182;-86
2021/10/29 00:03:40;;;;;;;8.47;5.83;;;13.40;19.50;;;;;;5116645;28;20269;-85
2021/10/29 00:06:07;;;;;;;8.33;6.00;;;13.40;20.10;;;;;;5098105;28;20175;-85
2021/10/29 00:08:33;;;;;;;9.90;6.70;;;13.40;19.60;;;;;;5116217;28;20168;-86
2021/10/29 00:10:59;;;;;;;8.77;5.90;;;13.40;18.80;;;;;;5115678;28;20171;-86
2021/10/29 00:13:24;;;;;;;7.57;5.90;;;13.40;18.60;;;;;;5116385;28;20176;-84
2021/10/29 00:15:50;;;;;;;8.50;5.83;;;13.30;20.90;;;;;;5103784;28;20198;-84
2021/10/29 00:18:16;;;;;;;8.57;5.77;;;13.30;22.60;;;;;;5107939;28;20205;-83
2021/10/29 00:20:42;;;;;;;9.03;5.90;;;13.30;22.50;;;;;;5127130;28;20183;-89
2021/10/29 00:23:14;;;;;;;6.87;5.47;;;13.30;21.80;;;;;;5123281;28;20243;-85
2021/10/29 00:25:39;;;;;;;9.97;6.10;;;13.30;22.20;;;;;;5119337;28;20272;-85
2021/10/29 00:28:05;;;;;;;8.87;5.73;;;13.30;23.40;;;;;;5121295;28;20203;-87
2021/10/29 00:30:37;;;;;;;8.37;5.90;;;13.30;23.00;;;;;;5126874;28;20302;-85
2021/10/29 00:33:06;;;;;;;9.13;6.10;;;13.40;22.30;;;;;;5129882;28;20584;-85
2021/10/29 00:35:32;;;;;;;8.00;5.80;;;13.40;20.80;;;;;;5117579;28;20167;-86
2021/10/29 00:38:04;;;;;;;10.37;5.90;;;13.40;20.00;;;;;;5116762;28;20598;-85
2021/10/29 00:40:39;;;;;;;8.83;6.17;;;13.30;21.10;;;;;;5100299;28;20189;-84
2021/10/29 00:43:09;;;;;;;9.40;5.67;;;13.30;23.60;;;;;;5099338;28;20199;-85
2021/10/29 00:45:38;;;;;;;11.03;6.47;;;13.30;23.00;;;;;;5114520;28;20185;-86
2021/10/29 00:48:13;;;;;;;8.77;5.53;;;13.30;24.20;;;;;;5139301;28;20249;-85
2021/10/29 00:50:40;;;;;;;9.13;5.47;;;13.30;22.40;;;;;;5119474;28;20510;-87
2021/10/29 00:53:43;;;;;;;8.37;5.90;;;13.30;22.00;;;;;;5097907;28;20183;-85
2021/10/29 00:56:09;;;;;;;7.50;5.63;;;13.30;23.40;;;;;;5116477;28;20167;-84
2021/10/29 00:58:35;;;;;;;11.13;6.10;;;13.30;24.50;;;;;;5137610;27;20218;-89
2021/10/29 01:01:02;;;;;;;11.57;6.03;;;13.30;24.70;;;;;;5089828;28;20183;-91
2021/10/29 01:03:29;;;;;;;8.33;5.97;;;13.30;22.70;;;;;;5102643;28;20203;-90
2021/10/29 01:05:58;;;;;;;8.90;5.77;;;13.50;23.20;;;;;;5121055;28;20697;-92
2021/10/29 01:08:24;;;;;;;8.07;6.03;;;13.30;23.60;;;;;;5121898;27;20245;-90
2021/10/29 01:10:50;;;;;;;8.43;6.03;;;13.30;25.10;;;;;;5116437;28;20179;-92
2021/10/29 01:13:17;;;;;;;8.60;5.90;;;13.30;25.60;;;;;;5113072;28;20155;-90
2021/10/29 01:15:44;;;;;;;9.53;5.80;;;13.30;25.80;;;;;;5097815;28;20263;-93
2021/10/29 01:18:12;;;;;;;9.13;5.50;;;13.40;24.40;;;;;;5097667;28;20206;-92
2021/10/29 01:20:38;;;;;;;8.27;5.73;;;13.30;25.40;;;;;;5098196;28;20537;-85
2021/10/29 01:23:05;;;;;;;9.13;6.43;;;13.20;26.00;;;;;;5096963;28;20211;-85
2021/10/29 01:25:31;;;;;;;8.07;5.87;;;13.30;26.80;;;;;;5123495;28;20226;-84
2021/10/29 01:27:57;;;;;;;9.77;6.10;;;13.30;26.60;;;;;;5120916;27;20158;-85
2021/10/29 01:30:23;;;;;;;10.10;6.07;;;13.30;25.80;;;;;;5106550;28;20206;-84
2021/10/29 01:32:52;;;;;;;9.27;6.10;;;13.20;27.60;;;;;;5099968;28;20195;-85
2021/10/29 01:35:36;;;;;;;10.53;6.33;;;13.20;28.00;;;;;;5096462;28;20173;-86
2021/10/29 01:38:11;;;;;;;8.67;5.93;;;13.40;28.50;;;;;;5095907;28;20167;-87
2021/10/29 01:40:36;;;;;;;9.20;6.27;;;13.20;27.90;;;;;;5096058;28;20221;-85
2021/10/29 01:43:03;;;;;;;8.87;6.03;;;13.10;28.80;;;;;;5096469;28;20211;-85
2021/10/29 01:45:29;;;;;;;8.57;6.40;;;13.10;30.60;;;;;;5097095;28;20173;-84
2021/10/29 01:47:55;;;;;;;9.30;6.00;;;13.20;30.20;;;;;;5097758;28;20174;-85
2021/10/29 01:50:20;;;;;;;10.03;6.03;;;13.10;30.00;;;;;;5099780;28;20166;-85
2021/10/29 01:52:47;;;;;;;8.80;6.10;;;13.10;28.90;;;;;;5121652;28;20538;-85
2021/10/29 01:55:14;;;;;;;9.13;6.30;;;13.10;30.20;;;;;;5121056;28;20163;-85
2021/10/29 01:57:39;;;;;;;10.00;6.27;;;13.10;29.80;;;;;;5098150;28;20175;-88
2021/10/29 02:00:12;;;;;;;7.47;5.67;;;13.30;31.60;;;;;;5095905;28;20164;-86
2021/10/29 02:02:42;;;;;;;8.17;6.10;;;13.10;31.10;;;;;;5095769;28;20763;-84
2021/10/29 02:05:09;;;;;;;8.40;5.53;;;13.10;30.00;;;;;;5095650;28;20168;-85
2021/10/29 02:07:35;;;;;;;10.43;6.27;;;13.10;30.40;;;;;;5114024;28;20168;-84
2021/10/29 02:10:02;;;;;;;9.90;6.73;;;13.10;31.60;;;;;;5095391;28;20650;-93
2021/10/29 02:12:28;;;;;;;8.47;5.60;;;13.00;32.70;;;;;;5112799;28;20190;-84
2021/10/29 02:14:54;;;;;;;10.07;5.73;;;13.20;33.20;;;;;;5115633;28;20265;-86
2021/10/29 02:17:24;;;;;;;8.80;6.03;;;13.10;32.40;;;;;;5099390;28;20187;-84
2021/10/29 02:19:50;;;;;;;8.70;5.83;;;13.20;31.80;;;;;;5099091;28;20187;-85
2021/10/29 02:22:15;;;;;;;7.80;5.10;;;13.10;31.90;;;;;;5098807;28;20257;-83
2021/10/29 02:24:41;;;;;;;9.90;5.90;;;13.20;32.50;;;;;;5082615;28;20207;-85
2021/10/29 02:27:07;;;;;;;7.57;5.70;;;13.10;30.80;;;;;;5116334;28;20176;-90
2021/10/29 02:29:35;;;;;;;9.80;5.40;;;13.20;28.70;;;;;;5123040;28;20190;-86
2021/10/29 02:32:04;;;;;;;9.10;6.00;;;13.30;28.60;;;;;;5110267;28;20171;-89
2021/10/29 02:34:30;;;;;;;9.20;5.70;;;13.10;28.80;;;;;;5118656;28;20216;-86
2021/10/29 02:36:55;;;;;;;8.53;5.93;;;13.10;29.70;;;;;;5118925;28;20525;-85
2021/10/29 02:39:21;;;;;;;6.93;6.00;;;13.10;30.60;;;;;;5105128;28;20562;-85
2021/10/29 02:41:47;;;;;;;7.83;5.47;;;13.00;33.10;;;;;;5133678;28;20191;-85
2021/10/29 02:44:14;;;;;;;8.00;6.03;;;13.00;34.70;;;;;;5116936;28;20175;-86
2021/10/29 02:46:39;;;;;;;7.20;5.37;;;13.00;34.90;;;;;;5116988;28;20167;-91
2021/10/29 02:49:06;;;;;;;10.03;5.83;;;13.10;34.30;;;;;;5116234;28;20211;-92
2021/10/29 02:51:32;;;;;;;7.60;5.43;;;13.10;32.00;;;;;;5116413;28;20187;-88
2021/10/29 02:53:58;;;;;;;10.83;6.13;;;13.00;31.70;;;;;;5112806;28;20232;-85
2021/10/29 02:56:24;;;;;;;9.47;6.00;;;13.00;33.20;;;;;;5118324;28;20225;-86
2021/10/29 02:58:50;;;;;;;8.07;5.97;;;12.90;34.90;;;;;;5119176;28;20183;-84
2021/10/29 03:01:17;;;;;;;7.73;5.30;;;12.90;35.50;;;;;;5105172;28;20254;-89
2021/10/29 03:03:48;;;;;;;8.40;5.40;;;12.90;34.60;;;;;;5123593;28;20172;-86
2021/10/29 03:06:14;;;;;;;9.80;5.47;;;13.00;32.30;;;;;;5108176;28;20163;-85
2021/10/29 03:08:41;;;;;;;7.97;5.43;;;13.00;34.00;;;;;;5113959;28;20197;-88
2021/10/29 03:11:07;;;;;;;8.70;4.97;;;12.90;34.40;;;;;;5108899;28;20253;-89
2021/10/29 03:13:33;;;;;;;7.70;5.40;;;12.90;34.10;;;;;;5108363;28;20167;-84
2021/10/29 03:16:00;;;;;;;7.97;5.90;;;12.90;34.40;;;;;;5118990;28;20184;-86
2021/10/29 03:18:25;;;;;;;8.37;4.77;;;12.90;35.20;;;;;;5129051;28;20197;-90
2021/10/29 03:20:53;;;;;;;10.23;5.87;;;13.00;36.30;;;;;;5129730;28;20226;-85
2021/10/29 03:23:20;;;;;;;7.77;5.47;;;12.80;36.60;;;;;;5137369;28;20211;-85
2021/10/29 03:25:49;;;;;;;6.80;5.43;;;12.80;36.90;;;;;;5120695;27;20169;-83
2021/10/29 03:28:17;;;;;;;9.53;5.50;;;12.80;38.60;;;;;;5110199;28;20243;-86
2021/10/29 03:30:43;;;;;;;7.93;5.67;;;12.90;38.20;;;;;;5123171;28;20177;-88
2021/10/29 03:36:56;;;;;;;7.93;5.70;;;12.80;39.50;;;;;;5125947;28;20204;-84
2021/10/29 03:39:41;;;;;;;8.43;5.77;;;12.80;39.00;;;;;;5100217;28;20224;-85
2021/10/29 03:42:20;;;;;;;8.80;5.27;;;12.90;40.70;;;;;;5120921;28;20195;-84
2021/10/29 03:45:15;;;;;;;7.20;5.57;;;12.70;41.90;;;;;;5108457;28;20638;-85
2021/10/29 03:48:03;;;;;;;8.00;5.70;;;12.80;41.00;;;;;;5121194;28;20163;-86
2021/10/29 03:50:34;;;;;;;7.83;5.03;;;12.80;40.60;;;;;;5110662;27;20147;-86
2021/10/29 03:53:07;;;;;;;7.10;5.23;;;12.80;39.30;;;;;;5138397;27;20242;-84
2021/10/29 03:55:35;;;;;;;8.40;5.13;;;12.80;39.60;;;;;;5109384;28;20171;-84
2021/10/29 03:58:01;;;;;;;8.03;5.07;;;12.80;39.90;;;;;;5122537;27;20182;-83
2021/10/29 04:00:31;;;;;;;8.60;5.30;;;12.80;39.20;;;;;;5123197;28;20190;-85
2021/10/29 04:03:02;;;;;;;7.80;4.93;;;12.80;39.50;;;;;;5110379;28;20214;-84
2021/10/29 04:05:30;;;;;;;7.50;5.67;;;12.80;40.30;;;;;;5099480;28;20231;-84
2021/10/29 04:08:29;;;;;;;7.77;5.07;;;12.80;39.90;;;;;;5129160;28;20167;-87
2021/10/29 04:10:57;;;;;;;9.90;5.70;;;12.80;37.60;;;;;;5122352;28;20225;-86
2021/10/29 04:13:28;;;;;;;8.37;4.87;;;12.70;39.20;;;;;;5139504;27;20143;-86
2021/10/29 04:15:54;;;;;;;9.33;5.47;;;12.70;41.20;;;;;;5121653;28;20207;-85
2021/10/29 04:18:22;;;;;;;11.43;5.53;;;12.70;40.50;;;;;;5114124;28;20573;-87
2021/10/29 04:20:48;;;;;;;10.37;5.50;;;12.90;39.20;;;;;;5111834;28;20179;-86
2021/10/29 04:23:13;;;;;;;10.20;5.57;;;12.80;38.90;;;;;;5128804;28;20233;-87
2021/10/29 04:25:42;;;;;;;8.13;5.67;;;12.80;39.20;;;;;;5132585;28;20595;-84
2021/10/29 04:28:11;;;;;;;8.70;5.53;;;12.80;39.20;;;;;;5131637;28;20198;-86
2021/10/29 04:30:43;;;;;;;10.13;5.73;;;12.80;37.10;;;;;;5112725;28;20163;-87
2021/10/29 04:33:10;;;;;;;10.77;5.90;;;12.90;37.70;;;;;;5125043;28;20255;-88
2021/10/29 04:35:37;;;;;;;9.93;5.53;;;12.90;35.90;;;;;;5108320;28;20232;-86
2021/10/29 04:38:08;;;;;;;7.93;5.00;;;12.90;35.80;;;;;;5110720;28;20188;-84
2021/10/29 04:40:38;;;;;;;10.13;6.60;;;13.00;33.50;;;;;;5126528;28;20639;-86
2021/10/29 04:43:05;;;;;;;9.53;5.10;;;12.90;34.60;;;;;;5104683;28;20557;-91
2021/10/29 04:45:32;;;;;;;6.90;5.07;;;12.90;32.20;;;;;;5117439;28;20217;-85
2021/10/29 04:47:59;;;;;;;7.20;5.00;;;13.10;34.60;;;;;;5097859;28;20540;-86
2021/10/29 04:50:28;;;;;;;8.93;4.83;;;12.90;34.70;;;;;;5097755;28;20172;-88
2021/10/29 04:52:56;;;;;;;7.00;5.07;;;12.90;35.40;;;;;;5115157;28;20203;-88
2021/10/29 04:55:24;;;;;;;8.67;5.10;;;12.90;36.00;;;;;;5097158;28;20171;-87
2021/10/29 04:57:54;;;;;;;10.03;5.23;;;12.80;35.60;;;;;;5115552;28;20262;-88
2021/10/29 05:00:21;;;;;;;10.77;5.20;;;12.90;38.10;;;;;;5098278;28;20171;-86
2021/10/29 05:02:54;;;;;;;8.40;5.10;;;12.80;36.10;;;;;;5097695;28;20206;-86
2021/10/29 05:05:26;;;;;;;7.07;5.20;;;12.90;34.10;;;;;;5097254;28;20167;-87
2021/10/29 05:07:52;;;;;;;7.83;5.17;;;12.90;33.40;;;;;;5115839;28;20163;-87
2021/10/29 05:10:18;;;;;;;6.33;4.87;;;13.00;34.30;;;;;;5100147;28;20167;-90
2021/10/29 05:12:46;;;;;;;9.93;5.20;;;12.90;33.30;;;;;;5109970;28;20238;-83
2021/10/29 05:15:12;;;;;;;9.27;5.30;;;12.80;34.60;;;;;;5106595;28;20240;-84
2021/10/29 05:17:42;;;;;;;8.00;5.57;;;12.80;36.80;;;;;;5120993;28;20304;-86
2021/10/29 05:20:08;;;;;;;10.57;4.87;;;12.90;33.60;;;;;;5100485;28;20195;-86
2021/10/29 05:22:33;;;;;;;8.37;4.97;;;12.90;33.80;;;;;;5098911;28;20268;-86
2021/10/29 05:25:10;;;;;;;10.13;5.60;;;12.90;31.00;;;;;;5097838;28;20171;-88
2021/10/29 05:27:37;;;;;;;9.40;5.47;;;12.90;32.30;;;;;;5097286;28;20457;-87
2021/10/29 05:30:12;;;;;;;9.83;5.07;;;12.80;34.80;;;;;;5097999;28;20187;-87
2021/10/29 05:32:40;;;;;;;7.83;5.37;;;12.80;35.30;;;;;;5115105;28;20172;-88
2021/10/29 05:35:07;;;;;;;9.87;5.43;;;12.90;37.20;;;;;;5116002;28;20200;-87
2021/10/29 05:37:34;;;;;;;11.63;6.13;;;12.80;37.40;;;;;;5115003;28;20178;-88
2021/10/29 05:40:00;;;;;;;11.30;5.13;;;13.00;36.90;;;;;;5098538;28;20259;-88
2021/10/29 05:42:27;;;;;;;8.93;5.60;;;12.80;36.90;;;;;;5096698;28;20299;-85
2021/10/29 05:44:54;;;;;;;11.23;5.33;;;12.80;37.00;;;;;;5116833;28;20642;-87
2021/10/29 05:47:22;;;;;;;14.17;5.43;;;12.80;37.30;;;;;;5087863;28;20242;-87
2021/10/29 05:49:49;;;;;;;12.80;6.43;;;12.70;39.50;;;;;;5111383;27;20163;-93
2021/10/29 05:52:19;;;;;;;13.77;6.40;;;12.90;41.30;;;;;;5126734;27;20175;-86
2021/10/29 05:57:20;;;;;;;9.63;5.67;;;12.80;40.40;;;;;;5102976;28;20175;-92
2021/10/29 05:59:56;;;;;;;6.90;5.20;;;12.80;39.30;;;;;;5104515;28;20175;-87
2021/10/29 06:02:24;;;;;;;10.70;6.03;;;12.90;39.70;;;;;;5106080;28;20243;-90
2021/10/29 06:04:50;;;;;;;11.70;6.30;;;12.80;39.80;;;;;;5129015;27;20177;-89
2021/10/29 06:07:16;;;;;;;10.53;6.17;;;12.70;38.70;;;;;;5106564;28;20228;-90
2021/10/29 06:09:41;;;;;;;7.63;5.00;;;12.70;41.30;;;;;;5107629;28;20182;-89
2021/10/29 06:12:08;;;;;;;8.17;5.50;;;12.80;42.00;;;;;;5129640;28;20171;-90
2021/10/29 06:14:35;;;;;;;9.63;5.87;;;12.80;42.30;;;;;;5121058;27;20187;-90
2021/10/29 06:17:02;;;;;;;6.37;4.63;;;12.80;40.70;;;;;;5143109;27;20171;-91
2021/10/29 06:19:27;;;;;;;9.03;5.17;;;12.80;41.30;;;;;;5117583;28;20195;-92
2021/10/29 06:22:03;;;;;;;9.40;5.33;;;12.80;41.70;;;;;;5115372;28;20207;-95
2021/10/29 06:24:30;;;;;;;9.07;5.43;;;12.80;42.50;;;;;;5107407;28;20683;-94
2021/10/29 06:29:49;;;;;;;8.33;5.00;;;12.70;43.00;;;;;;5099976;28;20191;-91
2021/10/29 06:32:16;;;;;;;8.47;4.80;;;12.60;45.80;;;;;;5126440;28;20176;-94
2021/10/29 06:34:42;;;;;;;8.87;5.70;;;12.50;47.30;;;;;;5118360;28;20182;-90
2021/10/29 06:37:15;;;;;;;8.50;5.67;;;12.80;49.20;;;;;;5117579;27;20178;-92
2021/10/29 06:39:41;;;;;;;11.97;6.10;;;12.70;47.80;;;;;;5108101;28;20167;-91
2021/10/29 06:42:11;;;;;;;8.80;5.67;;;12.60;45.90;;;;;;5110173;28;20202;-91
2021/10/29 06:45:24;;;;;;;11.10;5.23;;;12.70;44.80;;;;;;5106413;28;20171;-92
2021/10/29 07:01:03;;;;;;;7.87;5.20;;;12.90;37.80;;;;;;5123066;28;20198;-87
2021/10/29 07:11:58;;;;;;;8.20;5.20;;;12.90;38.10;;;;;;5132357;28;20692;-87
2021/10/29 07:42:33;;;;;;;12.30;5.27;;;13.30;24.50;;;;;;5118486;28;20219;-89
2021/10/29 07:45:02;;;;;;;7.77;4.87;;;13.40;22.10;;;;;;5100812;28;20174;-90
2021/10/29 07:47:28;;;;;;;8.47;4.47;;;13.50;20.60;;;;;;5102264;28;20201;-93
2021/10/29 07:49:54;;;;;;;7.50;4.70;;;13.60;17.90;;;;;;5100953;28;20253;-87
2021/10/29 07:52:20;;;;;;;9.70;5.07;;;13.50;16.80;;;;;;5100273;28;20210;-87
2021/10/29 07:54:46;;;;;;;7.67;5.40;;;13.60;17.30;;;;;;5095274;28;20210;-90
2021/10/29 07:57:20;;;;;;;8.17;4.63;;;13.70;14.60;;;;;;5114447;28;20176;-92
2021/10/29 07:59:55;;;;;;;7.37;4.83;;;13.80;12.60;;;;;;5102974;28;20567;-92
2021/10/29 08:02:24;;;;;;;8.63;5.20;;;13.70;9.00;;;;;;5101039;28;20200;-93
2021/10/29 08:04:55;;;;;;;9.17;4.60;;;13.90;7.80;;;;;;5101262;28;20178;-93
2021/10/29 08:07:21;;;;;;;11.20;5.07;;;14.00;5.30;;;;;;5101377;28;20204;-91
2021/10/29 08:09:47;;;;;;;10.37;5.60;;;14.10;5.90;;;;;;5113061;28;20266;-88
2021/10/29 08:12:15;;;;;;;10.40;4.87;;;14.00;3.90;;;;;;5108409;28;20169;-89
2021/10/29 08:14:42;;;;;;;7.77;4.37;;;14.00;1.90;;;;;;5102767;28;20186;-89
2021/10/29 08:17:08;;;;;;;6.07;4.93;;;14.10;1.00;;;;;;5100354;28;20190;-89
2021/10/29 08:19:34;;;;;;;10.00;4.70;;;14.20;1.00;;;;;;5101564;28;20197;-92
2021/10/29 08:22:03;;;;;;;7.93;4.70;;;14.30;1.00;;;;;;5113979;28;20196;-87
2021/10/29 08:24:30;;;;;;;8.37;4.83;;;14.30;1.00;;;;;;5110542;28;20181;-91
2021/10/29 08:27:02;;;;;;;9.07;4.77;;;14.40;1.00;;;;;;5112573;28;20183;-88
2021/10/29 08:29:30;;;;;;;8.20;4.37;;;14.40;1.00;;;;;;5109613;28;20552;-93
2021/10/29 08:31:59;;;;;;;7.67;4.27;;;14.40;1.00;;;;;;5120902;28;20189;-94
2021/10/29 08:34:27;;;;;;;9.07;4.90;;;14.50;1.00;;;;;;5105195;28;20186;-93
2021/10/29 08:36:58;;;;;;;8.23;4.70;;;14.60;1.00;;;;;;5115622;28;20184;-93
2021/10/29 08:39:26;;;;;;;7.77;5.17;;;14.70;1.00;;;;;;5125181;28;20177;-87
2021/10/29 08:41:57;;;;;;;9.90;4.30;;;14.80;1.00;;;;;;5083914;28;20196;-88
2021/10/29 08:44:29;;;;;;;8.17;4.40;;;15.00;1.00;;;;;;5104273;28;20174;-90
2021/10/29 08:47:00;;;;;;;8.23;4.10;;;14.90;1.00;;;;;;5111798;28;20206;-93
2021/10/29 08:49:34;;;;;;;8.60;4.30;;;15.00;1.00;;;;;;5120919;27;20159;-89
2021/10/29 08:52:05;;;;;;;7.03;3.73;;;15.20;1.00;;;;;;5118955;28;20203;-91
2021/10/29 08:54:33;;;;;;;8.00;4.37;;;15.20;1.00;;;;;;5128641;28;20169;-92
2021/10/29 08:57:01;;;;;;;10.40;4.13;;;15.10;1.00;;;;;;5134223;27;20185;-88
2021/10/29 08:59:31;;;;;;;9.60;4.50;;;15.40;1.00;;;;;;5121340;27;20152;-89
2021/10/29 09:02:29;;;;;;;7.63;3.93;;;15.50;1.00;;;;;;5114876;28;20202;-88
2021/10/29 09:04:58;;;;;;;8.37;4.13;;;15.50;1.00;;;;;;5131176;28;20678;-88
2021/10/29 09:35:26;;;;;;;6.70;3.20;;;16.40;1.00;;;;;;5132625;28;20170;-84
2021/10/29 09:38:04;;;;;;;5.47;3.00;;;16.50;1.00;;;;;;5116150;28;20254;-90
2021/10/29 09:40:33;;;;;;;4.70;2.93;;;16.50;1.00;;;;;;5103958;28;20159;-90
2021/10/29 09:43:30;;;;;;;7.27;2.93;;;16.50;1.00;;;;;;5104201;28;20194;-90
2021/10/29 09:45:59;;;;;;;5.17;3.00;;;16.60;1.00;;;;;;5120110;28;20157;-87
2021/10/29 09:49:06;;;;;;;4.60;2.80;;;16.80;1.00;;;;;;5119100;28;20225;-85
2021/10/29 09:52:29;;;;;;;5.80;3.00;;;16.70;1.00;;;;;;5131680;28;20182;-89
2021/10/29 09:57:36;;;;;;;4.50;2.70;;;16.90;1.00;;;;;;5120724;28;20234;-90
2021/10/29 10:00:20;;;;;;;8.07;3.50;;;17.00;1.00;;;;;;5105960;28;20163;-93
2021/10/29 10:02:46;;;;;;;8.80;3.20;;;17.00;1.00;;;;;;5114774;28;20218;-92
2021/10/29 10:05:15;;;;;;;4.90;3.07;;;17.10;1.00;;;;;;5119263;28;20163;-91
2021/10/29 10:07:45;;;;;;;7.20;3.37;;;17.10;1.00;;;;;;5101828;28;20181;-92
2021/10/29 10:10:11;;;;;;;5.30;2.70;;;17.10;1.00;;;;;;5100073;28;20171;-93
2021/10/29 10:12:43;;;;;;;7.07;3.20;;;17.20;1.00;;;;;;5118754;28;20660;-90
2021/10/29 10:15:12;;;;;;;5.23;3.10;;;17.10;1.00;;;;;;5128708;28;20175;-90
2021/10/29 10:17:40;;;;;;;5.90;2.90;;;17.30;1.00;;;;;;5122805;28;20167;-91
2021/10/29 10:20:09;;;;;;;6.27;2.90;;;17.40;1.00;;;;;;5092606;28;20256;-92
2021/10/29 10:22:40;;;;;;;6.33;2.93;;;17.40;1.00;;;;;;5101312;28;20233;-92
2021/10/29 10:25:17;;;;;;;6.73;2.80;;;17.50;1.00;;;;;;5100416;28;20174;-92
2021/10/29 10:42:33;;;;;;;5.97;2.80;;;17.80;1.00;;;;;;5107165;28;20242;-87
2021/10/29 10:45:12;;;;;;;4.27;2.73;;;17.90;1.00;;;;;;5109918;28;20183;-86
2021/10/29 10:47:45;;;;;;;6.73;3.10;;;17.90;1.00;;;;;;5112895;28;20175;-86
2021/10/29 10:50:21;;;;;;;7.63;3.17;;;18.00;1.00;;;;;;5107452;28;20238;-90
2021/10/29 10:53:05;;;;;;;7.43;3.90;;;18.20;1.00;;;;;;5103770;28;20167;-87
2021/10/29 10:55:49;;;;;;;6.83;3.20;;;18.10;1.00;;;;;;5103761;28;20176;-89
2021/10/29 10:58:25;;;;;;;8.53;3.83;;;18.20;1.00;;;;;;5088718;28;20316;-87
2021/10/29 11:01:08;;;;;;;4.87;3.07;;;18.20;1.00;;;;;;5109437;28;20175;-90
2021/10/29 11:04:14;;;;;;;6.80;2.90;;;18.20;1.00;;;;;;5122811;28;20210;-89
2021/10/29 11:07:18;;;;;;;5.87;3.03;;;18.30;1.00;;;;;;5107221;28;20254;-87
2021/10/29 11:12:53;;;;;;;5.80;2.83;;;18.40;1.00;;;;;;5120095;28;20187;-87
2021/10/29 11:15:26;;;;;;;3.90;2.63;;;18.50;1.00;;;;;;5109782;28;20198;-90
2021/10/29 11:18:15;;;;;;;10.77;3.07;;;18.50;1.00;;;;;;5133055;28;20270;-91
2021/10/29 11:20:50;;;;;;;11.70;3.20;;;18.50;1.00;;;;;;5103961;28;20185;-88
2021/10/29 11:23:34;;;;;;;7.57;2.90;;;18.50;1.00;;;;;;5106410;28;20194;-89
2021/10/29 11:26:20;;;;;;;8.70;3.57;;;18.50;1.00;;;;;;5090141;28;20175;-90
2021/10/29 11:28:52;;;;;;;7.07;3.27;;;18.50;1.00;;;;;;5090342;28;20270;-85
2021/10/29 11:31:21;;;;;;;7.13;3.37;;;18.50;1.00;;;;;;5089901;28;20168;-83
2021/10/29 11:34:52;;;;;;;;;;;;;;;;;;;;;
2021/10/29 11:37:27;;;;;;;8.50;3.17;;;18.50;1.00;;;;;;5110484;28;20195;-85
2021/10/29 11:39:57;;;;;;;5.17;3.00;;;18.70;1.00;;;;;;5090155;28;20604;-85
2021/10/29 11:42:31;;;;;;;9.07;3.20;;;18.80;1.00;;;;;;5116020;28;20225;-88
2021/10/29 11:45:03;;;;;;;7.13;3.13;;;18.80;1.00;;;;;;5121393;28;20177;-86
2021/10/29 11:47:32;;;;;;;6.57;2.90;;;18.90;1.00;;;;;;5131688;28;20210;-85
2021/10/29 11:50:24;;;;;;;10.60;3.37;;;18.80;1.00;;;;;;5129810;28;20189;-84
2021/10/29 11:52:50;;;;;;;8.87;3.13;;;18.90;1.00;;;;;;5118234;28;20213;-87
2021/10/29 11:55:25;;;;;;;7.27;3.27;;;18.80;1.00;;;;;;5121321;28;20400;-86
2021/10/29 11:58:06;;;;;;;7.07;3.30;;;18.90;1.00;;;;;;5125573;28;20182;-86
2021/10/29 12:01:13;;;;;;;9.57;3.00;;;18.90;1.00;;;;;;5124020;28;20223;-85
2021/10/29 12:07:13;;;;;;;7.50;3.20;;;18.90;1.00;;;;;;5120511;28;20197;-84
2021/10/29 12:09:30;;;;;;;7.23;3.10;;;19.00;1.00;;;;;;5120710;28;20190;-84
2021/10/29 12:11:59;;;;;;;7.17;3.07;;;18.80;1.00;;;;;;5122798;28;20229;-84
2021/10/29 12:14:49;;;;;;;7.97;3.53;;;18.70;1.00;;;;;;5128004;28;20178;-84
2021/10/29 12:17:23;;;;;;;7.23;3.53;;;18.60;1.00;;;;;;5122456;28;20183;-86
2021/10/29 12:19:53;;;;;;;7.57;3.97;;;18.70;1.00;;;;;;5121719;28;20270;-88
2021/10/29 12:28:06;;;;;;;8.07;2.93;;;18.20;1.00;;;;;;5111682;28;20175;-84
2021/10/29 12:33:29;;;;;;;7.17;3.60;;;18.20;1.00;;;;;;5100725;28;20173;-85
2021/10/29 13:02:03;;;;;;;9.47;4.10;;;18.00;1.00;;;;;;5091745;28;20631;-88
2021/10/29 13:04:53;;;;;;;6.40;3.23;;;17.90;1.00;;;;;;5099771;28;20186;-86
2021/10/29 13:07:59;;;;;;;5.47;3.20;;;17.90;1.00;;;;;;5117909;28;20168;-89
2021/10/29 13:10:58;;;;;;;8.10;3.20;;;17.90;1.00;;;;;;4999474;28;20214;-87
2021/10/29 13:14:00;;;;;;;5.17;3.40;;;17.90;1.00;;;;;;5112881;28;20178;-87
2021/10/29 13:16:37;;;;;;;7.37;4.53;;;17.90;1.00;;;;;;5081981;28;20191;-90
2021/10/29 13:20:35;;;;;;;;;;;;;;;;;;;;;
2021/10/29 13:29:21;;;;;;;5.77;2.80;;;17.70;1.00;;;;;;5017332;28;20236;-88
2021/10/29 13:37:56;;;;;;;5.80;2.93;;;17.70;1.00;;;;;;5099519;28;20192;-90
2021/10/29 14:29:13;;;;;;;4.83;3.13;;;17.40;1.00;;;;;;5114962;28;20187;-91
2021/10/29 14:31:53;;;;;;;7.43;3.10;;;17.40;1.00;;;;;;5108617;28;20226;-90
2021/10/29 14:34:23;;;;;;;6.60;3.10;;;17.30;1.00;;;;;;5107745;28;20180;-88
2021/10/29 14:42:50;;;;;;;6.13;2.70;;;17.00;1.00;;;;;;5120367;28;20221;-90
2021/10/29 14:44:50;;;;;;;4.97;2.87;;;16.90;1.00;;;;;;5094802;28;20214;-89
2021/10/29 14:47:32;;;;;;;7.33;2.90;;;16.90;8.70;;;;;;5109605;28;20184;-89
2021/10/29 15:03:47;;;;;;;6.47;3.53;;;15.70;84.00;;;;;;5121354;28;20207;-92
2021/10/29 15:17:44;;;;;;;9.83;3.83;;;15.50;94.30;;;;;;5123075;28;20174;-90
2021/10/29 15:32:19;;;;;;;7.97;4.60;;;15.40;97.20;;;;;;5125986;28;20201;-89
2021/10/29 15:52:04;;;;;;;7.63;4.37;;;15.20;96.10;;;;;;5133885;28;20224;-91
2021/10/29 15:55:24;;;;;;;6.17;4.00;;;15.20;96.50;;;;;;5109910;28;20679;-89
2021/10/29 15:58:13;;;;;;;7.90;4.10;;;15.20;96.90;;;;;;5103610;28;20201;-89
2021/10/29 16:03:48;;;;;;;7.83;4.57;;;15.20;96.90;;;;;;5089073;28;20211;-90
2021/10/29 16:17:28;;;;;;;8.40;4.83;;;15.20;98.10;;;;;;5109457;28;20178;-90
2021/10/29 16:20:00;;;;;;;8.30;5.07;;;15.20;97.90;;;;;;5093340;28;20225;-91
2021/10/29 16:22:34;;;;;;;8.60;4.97;;;15.20;97.80;;;;;;5109642;28;20659;-90
2021/10/29 16:25:16;;;;;;;6.17;4.70;;;15.30;97.50;;;;;;5112795;28;20615;-88
2021/10/29 16:28:29;;;;;;;7.63;4.20;;;15.20;97.40;;;;;;5119488;28;20208;-89
2021/10/29 16:31:08;;;;;;;7.77;5.00;;;15.10;97.40;;;;;;5139648;28;20176;-90
2021/10/29 16:33:34;;;;;;;10.57;4.40;;;15.10;97.80;;;;;;5101449;28;20216;-88
2021/10/29 16:36:05;;;;;;;7.40;4.33;;;15.10;97.60;;;;;;5110716;28;20171;-92
2021/10/29 16:38:33;;;;;;;8.30;4.23;;;15.20;97.90;;;;;;5130252;28;20185;-88
2021/10/29 16:41:10;;;;;;;7.63;4.50;;;15.00;97.70;;;;;;5127787;28;20167;-92
2021/10/29 16:43:45;;;;;;;14.87;6.90;;;15.10;97.90;;;;;;5098271;28;20225;-91
2021/10/29 16:49:49;;;;;;;9.13;4.93;;;15.20;97.40;;;;;;5046565;28;20234;-87
2021/10/29 16:52:15;;;;;;;6.10;4.50;;;15.20;97.30;;;;;;5031907;28;20182;-92
2021/10/29 16:54:56;;;;;;;5.90;4.53;;;15.10;97.60;;;;;;5078692;28;20278;-88
2021/10/29 16:57:33;;;;;;;18.80;11.30;;;15.10;98.30;;;;;;5119068;28;20159;-90
2021/10/29 17:00:12;;;;;;;7.60;5.23;;;15.10;98.20;;;;;;5137890;28;20164;-86
2021/10/29 17:02:39;;;;;;;9.53;5.37;;;15.10;97.80;;;;;;5135546;28;20225;-88
2021/10/29 17:05:12;;;;;;;7.83;5.10;;;15.10;98.10;;;;;;5115644;28;20201;-92
2021/10/29 17:08:15;;;;;;;9.17;5.03;;;15.00;98.30;;;;;;5098069;28;20178;-91
2021/10/29 17:10:51;;;;;;;6.33;4.83;;;15.00;98.50;;;;;;5114658;28;20170;-91
2021/10/29 17:13:45;;;;;;;8.53;5.23;;;15.10;98.50;;;;;;5129916;28;20171;-88
2021/10/29 17:16:54;;;;;;;;;;;;;;;;;;;;;
2021/10/29 17:23:44;;;;;;;9.90;5.00;;;15.10;98.70;;;;;;5032914;28;20209;-87
2021/10/29 17:26:20;;;;;;;8.03;5.20;;;15.10;97.90;;;;;;5015389;28;20189;-89
2021/10/29 17:29:16;;;;;;;6.77;4.70;;;15.10;98.20;;;;;;5046912;28;20274;-89
2021/10/29 17:32:26;;;;;;;9.37;5.20;;;15.10;97.90;;;;;;5116939;28;20179;-89
2021/10/29 17:35:35;;;;;;;6.50;4.90;;;15.00;97.70;;;;;;5136256;28;20165;-90
2021/10/29 17:38:23;;;;;;;7.33;4.57;;;15.00;97.50;;;;;;5119602;28;20220;-87
2021/10/29 17:41:28;;;;;;;5.97;4.40;;;15.00;97.40;;;;;;5111639;28;20214;-88
2021/10/29 17:43:58;;;;;;;6.80;4.37;;;15.10;97.40;;;;;;5118418;28;20197;-90
2021/10/29 17:47:19;;;;;;;8.80;4.60;;;15.10;97.20;;;;;;5133928;28;20177;-89
2021/10/29 17:49:53;;;;;;;7.73;4.73;;;15.10;96.90;;;;;;5117961;28;20228;-88
2021/10/29 17:52:40;;;;;;;8.00;4.70;;;15.10;96.90;;;;;;5098202;28;20199;-89
2021/10/29 17:55:36;;;;;;;6.77;4.57;;;15.00;97.40;;;;;;5135350;28;20182;-87
2021/10/29 17:58:56;;;;;;;7.73;4.80;;;15.00;97.90;;;;;;5137113;28;20186;-86
2021/10/29 18:02:10;;;;;;;8.87;4.77;;;15.00;98.00;;;;;;5119325;28;20162;-85
2021/10/29 18:08:26;;;;;;;10.90;5.17;;;15.00;98.30;;;;;;5136972;28;20191;-89
2021/10/29 18:11:07;;;;;;;;;;;;;;;;;;;;;
2021/10/29 18:14:09;;;;;;;7.70;3.97;;;15.00;98.80;;;;;;5117656;28;20205;-89
2021/10/29 18:17:17;;;;;;;;;;;;;;;;;;;;;
2021/10/29 18:20:15;;;;;;;6.80;4.37;;;14.80;98.90;;;;;;5137926;28;20197;-88